createdAt,value
2023-03-02T00:02:06.287Z,101201.33
2023-03-02T00:04:37.305Z,101204.18
2023-03-02T00:07:09.695Z,101205.91
2023-03-02T00:09:39.077Z,101206.88
2023-03-02T00:12:08.585Z,101207.89
2023-03-02T00:14:38.325Z,101212.61
2023-03-02T00:17:08.225Z,101215.10
2023-03-02T00:19:37.104Z,101214.14
2023-03-02T00:22:06.123Z,101213.70
2023-03-02T00:24:34.383Z,101212.56
2023-03-02T00:27:02.557Z,101212.41
2023-03-02T00:29:30.841Z,101212.39
2023-03-02T00:31:59.244Z,101211.96
2023-03-02T00:34:27.581Z,101209.80
2023-03-02T00:36:55.750Z,101212.17
2023-03-02T00:39:24.171Z,101212.77
2023-03-02T00:41:52.519Z,101212.89
2023-03-02T00:44:20.702Z,101207.54
2023-03-02T00:46:48.994Z,101208.34
2023-03-02T00:49:17.148Z,101202.89
2023-03-02T00:51:45.536Z,101201.77
2023-03-02T00:54:13.906Z,101202.79
2023-03-02T00:56:42.889Z,101196.14
2023-03-02T00:59:28.350Z,101196.43
2023-03-02T01:02:11.121Z,101190.98
2023-03-02T01:04:42.766Z,101187.93
2023-03-02T01:07:13.977Z,101186.35
2023-03-02T01:09:43.470Z,101186.74
2023-03-02T01:12:12.670Z,101181.92
2023-03-02T01:14:47.165Z,101179.60
2023-03-02T01:17:15.928Z,101178.40
2023-03-02T01:19:44.279Z,101171.25
2023-03-02T01:22:12.532Z,101167.90
2023-03-02T01:24:40.918Z,101165.89
2023-03-02T01:27:09.525Z,101163.30
2023-03-02T01:29:38.277Z,101154.41
2023-03-02T01:32:07.222Z,101151.25
2023-03-02T01:34:35.757Z,101148.39
2023-03-02T01:37:03.933Z,101144.83
2023-03-02T01:39:32.102Z,101141.83
2023-03-02T01:42:00.490Z,101141.46
2023-03-02T01:44:48.650Z,101134.48
2023-03-02T01:47:25.507Z,101142.42
2023-03-02T01:50:27.421Z,101136.74
2023-03-02T01:52:58.823Z,101135.58
2023-03-02T01:55:32.203Z,101130.64
2023-03-02T01:58:02.918Z,101126.24
2023-03-02T02:00:36.267Z,101126.34
2023-03-02T02:03:22.279Z,101123.46
2023-03-02T02:06:23.898Z,101122.83
2023-03-02T02:08:56.263Z,101121.66
2023-03-02T02:11:25.369Z,101117.79
2023-03-02T02:13:57.518Z,101112.56
2023-03-02T02:16:32.138Z,101111.58
2023-03-02T02:19:02.784Z,101110.50
2023-03-02T02:21:31.896Z,101110.64
2023-03-02T02:24:06.398Z,101106.75
2023-03-02T02:26:56.404Z,101108.03
2023-03-02T02:29:30.491Z,101107.23
2023-03-02T02:32:23.807Z,101102.98
2023-03-02T02:35:27.710Z,101104.77
2023-03-02T02:38:04.656Z,101105.11
2023-03-02T02:41:02.010Z,101100.98
2023-03-02T02:43:33.149Z,101102.44
2023-03-02T02:46:02.827Z,101101.17
2023-03-02T02:48:32.673Z,101097.75
2023-03-02T02:51:03.157Z,101091.54
2023-03-02T02:53:50.223Z,101095.73
2023-03-02T02:56:19.429Z,101095.09
2023-03-02T02:58:52.141Z,101094.17
2023-03-02T03:01:26.304Z,101100.33
2023-03-02T03:04:02.856Z,101099.98
2023-03-02T03:06:38.602Z,101095.35
2023-03-02T03:09:08.560Z,101094.61
2023-03-02T03:11:50.685Z,101096.88
2023-03-02T03:14:29.779Z,101096.41
2023-03-02T03:16:58.521Z,101094.53
2023-03-02T03:19:32.287Z,101092.73
2023-03-02T03:22:02.171Z,101087.09
2023-03-02T03:24:34.823Z,101085.85
2023-03-02T03:27:05.797Z,101085.95
2023-03-02T03:29:38.241Z,101083.58
2023-03-02T03:32:08.632Z,101087.73
2023-03-02T03:34:41.906Z,101087.89
2023-03-02T03:37:19.663Z,101086.98
2023-03-02T03:39:48.094Z,101086.92
2023-03-02T03:42:17.477Z,101089.39
2023-03-02T03:44:46.259Z,101087.71
2023-03-02T03:47:15.045Z,101086.15
2023-03-02T03:49:43.424Z,101090.35
2023-03-02T03:52:12.423Z,101082.23
2023-03-02T03:54:41.218Z,101079.38
2023-03-02T03:57:12.274Z,101077.84
2023-03-02T03:59:41.119Z,101077.48
2023-03-02T04:02:09.416Z,101078.98
2023-03-02T04:04:41.199Z,101075.56
2023-03-02T04:07:15.701Z,101071.96
2023-03-02T04:09:45.009Z,101071.91
2023-03-02T04:12:15.121Z,101072.70
2023-03-02T04:14:51.386Z,101074.23
2023-03-02T04:17:19.863Z,101081.63
2023-03-02T04:19:50.283Z,101080.19
2023-03-02T04:22:20.224Z,101076.06
2023-03-02T04:24:49.907Z,101075.29
2023-03-02T04:27:19.514Z,101071.91
2023-03-02T04:29:48.470Z,101068.56
2023-03-02T04:32:17.247Z,101068.91
2023-03-02T04:34:49.382Z,101072.40
2023-03-02T04:37:17.874Z,101073.66
2023-03-02T04:39:50.444Z,101070.28
2023-03-02T04:42:19.946Z,101067.41
2023-03-02T04:44:48.595Z,101065.58
2023-03-02T04:47:17.011Z,101065.95
2023-03-02T04:49:45.505Z,101063.70
2023-03-02T04:52:13.873Z,101062.40
2023-03-02T04:54:42.254Z,101062.23
2023-03-02T04:57:10.526Z,101058.04
2023-03-02T04:59:39.109Z,101056.77
2023-03-02T05:02:07.420Z,101058.95
2023-03-02T05:04:36.451Z,101057.75
2023-03-02T05:07:04.757Z,101059.77
2023-03-02T05:09:33.025Z,101057.77
2023-03-02T05:12:02.480Z,101058.34
2023-03-02T05:14:31.646Z,101064.60
2023-03-02T05:16:59.904Z,101063.21
2023-03-02T05:19:28.572Z,101069.30
2023-03-02T05:21:58.456Z,101064.49
2023-03-02T05:24:29.800Z,101071.14
2023-03-02T05:26:58.418Z,101068.29
2023-03-02T05:29:26.805Z,101070.06
2023-03-02T05:31:55.119Z,101069.40
2023-03-02T05:34:23.759Z,101069.69
2023-03-02T05:36:52.174Z,101067.36
2023-03-02T05:39:21.239Z,101066.02
2023-03-02T05:41:49.651Z,101064.70
2023-03-02T05:44:18.566Z,101066.92
2023-03-02T05:46:46.946Z,101068.88
2023-03-02T05:49:15.624Z,101068.24
2023-03-02T05:51:44.407Z,101067.23
2023-03-02T05:54:13.210Z,101066.29
2023-03-02T05:56:42.556Z,101071.42
2023-03-02T05:59:10.777Z,101071.95
2023-03-02T06:01:39.310Z,101075.48
2023-03-02T06:04:07.955Z,101076.85
2023-03-02T06:06:37.928Z,101080.02
2023-03-02T06:09:06.672Z,101082.81
2023-03-02T06:11:35.280Z,101086.93
2023-03-02T06:14:03.768Z,101084.66
2023-03-02T06:16:34.338Z,101085.20
2023-03-02T06:19:03.589Z,101087.53
2023-03-02T06:21:31.966Z,101090.74
2023-03-02T06:24:00.558Z,101088.14
2023-03-02T06:26:29.137Z,101090.13
2023-03-02T06:28:57.726Z,101088.86
2023-03-02T06:31:26.465Z,101093.06
2023-03-02T06:33:54.895Z,101090.92
2023-03-02T06:36:23.430Z,101092.94
2023-03-02T06:38:52.191Z,101095.50
2023-03-02T06:41:20.852Z,101095.73
2023-03-02T06:43:49.438Z,101102.14
2023-03-02T06:46:17.688Z,101099.05
2023-03-02T06:48:46.428Z,101099.72
2023-03-02T06:51:14.760Z,101101.67
2023-03-02T06:53:43.150Z,101103.48
2023-03-02T06:56:11.430Z,101104.83
2023-03-02T06:58:40.034Z,101103.60
2023-03-02T07:01:08.440Z,101104.38
2023-03-02T07:03:37.525Z,101108.02
2023-03-02T07:06:06.478Z,101105.15
2023-03-02T07:08:35.097Z,101104.30
2023-03-02T07:11:12.604Z,101101.13
2023-03-02T07:13:41.135Z,101096.48
2023-03-02T07:16:14.751Z,101104.40
2023-03-02T07:18:43.149Z,101102.38
2023-03-02T07:21:11.490Z,101100.09
2023-03-02T07:23:39.883Z,101098.10
2023-03-02T07:26:09.180Z,101098.41
2023-03-02T07:28:42.188Z,101095.56
2023-03-02T07:31:11.622Z,101096.16
2023-03-02T07:33:41.171Z,101096.27
2023-03-02T07:36:10.289Z,101093.11
2023-03-02T07:38:39.051Z,101093.29
2023-03-02T07:41:11.220Z,101086.59
2023-03-02T07:43:39.495Z,101085.00
2023-03-02T07:46:07.925Z,101085.16
2023-03-02T07:48:36.787Z,101080.77
2023-03-02T07:51:07.188Z,101078.08
2023-03-02T07:53:36.089Z,101077.92
2023-03-02T07:56:10.183Z,101077.65
2023-03-02T07:58:38.795Z,101085.70
2023-03-02T08:01:07.277Z,101086.52
2023-03-02T08:03:37.162Z,101087.40
2023-03-02T08:06:10.884Z,101085.48
2023-03-02T08:08:39.366Z,101082.75
2023-03-02T08:11:10.357Z,101083.05
2023-03-02T08:13:38.689Z,101085.39
2023-03-02T08:16:09.321Z,101082.42
2023-03-02T08:18:38.716Z,101076.20
2023-03-02T08:21:17.030Z,101079.06
2023-03-02T08:23:46.351Z,101081.89
2023-03-02T08:26:17.480Z,101080.35
2023-03-02T08:28:47.807Z,101075.66
2023-03-02T08:31:16.449Z,101075.63
2023-03-02T08:33:46.255Z,101073.62
2023-03-02T08:36:17.902Z,101078.27
2023-03-02T08:38:47.685Z,101077.26
2023-03-02T08:41:19.420Z,101080.42
2023-03-02T08:43:48.737Z,101083.21
2023-03-02T08:46:19.136Z,101081.27
2023-03-02T08:48:50.008Z,101086.02
2023-03-02T08:51:22.242Z,101085.11
2023-03-02T08:53:55.024Z,101081.91
2023-03-02T08:56:27.918Z,101082.42
2023-03-02T08:59:00.136Z,101081.93
2023-03-02T09:01:33.171Z,101081.58
2023-03-02T09:04:03.004Z,101076.63
2023-03-02T09:06:34.859Z,101073.14
2023-03-02T09:09:04.512Z,101069.23
2023-03-02T09:11:34.258Z,101065.50
2023-03-02T09:14:03.965Z,101063.45
2023-03-02T09:16:32.586Z,101061.29
2023-03-02T09:19:01.341Z,101062.55
2023-03-02T09:21:29.836Z,101058.61
2023-03-02T09:23:58.927Z,101056.06
2023-03-02T09:26:28.064Z,101053.09
2023-03-02T09:28:57.004Z,101052.35
2023-03-02T09:31:27.874Z,101052.94
2023-03-02T09:33:57.761Z,101049.34
2023-03-02T09:36:27.373Z,101050.27
2023-03-02T09:38:55.861Z,101049.23
2023-03-02T09:42:02.734Z,101046.94
2023-03-02T09:45:09.515Z,101044.09
2023-03-02T09:47:47.937Z,101045.99
2023-03-02T09:50:31.904Z,101042.59
2023-03-02T09:53:19.495Z,101039.48
2023-03-02T09:55:53.510Z,101035.59
2023-03-02T09:58:25.811Z,101035.59
2023-03-02T10:00:54.570Z,101035.95
2023-03-02T10:03:28.473Z,101031.48
2023-03-02T10:05:58.101Z,101031.79
2023-03-02T10:08:29.907Z,101034.27
2023-03-02T10:10:58.386Z,101032.24
2023-03-02T10:13:47.715Z,101026.83
2023-03-02T10:16:19.399Z,101027.14
2023-03-02T10:19:14.244Z,101027.72
2023-03-02T10:21:47.745Z,101026.27
2023-03-02T10:24:31.484Z,101023.50
2023-03-02T10:27:12.910Z,101025.52
2023-03-02T10:30:07.052Z,101021.80
2023-03-02T10:32:53.785Z,101015.73
2023-03-02T10:35:25.640Z,101015.79
2023-03-02T10:38:10.905Z,101014.44
2023-03-02T10:40:39.901Z,101014.41
2023-03-02T10:43:17.996Z,101010.19
2023-03-02T10:45:58.090Z,101007.41
2023-03-02T10:48:26.548Z,101006.88
2023-03-02T10:50:58.302Z,100999.42
2023-03-02T10:53:26.873Z,101001.45
2023-03-02T10:55:55.372Z,100995.18
2023-03-02T10:58:32.643Z,100994.66
2023-03-02T11:01:16.027Z,100987.54
2023-03-02T11:03:58.990Z,100985.57
2023-03-02T11:06:29.649Z,100979.08
2023-03-02T11:09:00.474Z,100978.89
2023-03-02T11:11:29.870Z,100974.45
2023-03-02T11:14:18.154Z,100971.48
2023-03-02T11:16:46.604Z,100970.81
2023-03-02T11:19:19.726Z,100971.84
2023-03-02T11:22:21.628Z,100967.13
2023-03-02T11:24:56.417Z,100964.17
2023-03-02T11:27:29.417Z,100960.74
2023-03-02T11:30:19.292Z,100955.19
2023-03-02T11:32:50.373Z,100955.05
2023-03-02T11:35:33.389Z,100948.31
2023-03-02T11:38:34.291Z,100945.52
2023-03-02T11:41:27.563Z,100945.14
2023-03-02T11:44:06.131Z,100939.01
2023-03-02T11:46:35.860Z,100937.15
2023-03-02T11:49:07.746Z,100937.77
2023-03-02T11:51:47.383Z,100935.99
2023-03-02T11:54:34.811Z,100932.12
2023-03-02T11:57:04.429Z,100923.63
2023-03-02T11:59:34.542Z,100918.10
2023-03-02T12:02:04.003Z,100915.29
2023-03-02T12:04:36.463Z,100910.56
2023-03-02T12:07:16.781Z,100910.40
2023-03-02T12:09:45.154Z,100907.47
2023-03-02T12:12:19.271Z,100905.30
2023-03-02T12:14:47.703Z,100902.26
2023-03-02T12:17:25.395Z,100900.94
2023-03-02T12:20:07.077Z,100896.52
2023-03-02T12:22:36.851Z,100891.27
2023-03-02T12:25:20.798Z,100889.70
2023-03-02T12:27:52.032Z,100884.25
2023-03-02T12:30:26.516Z,100881.52
2023-03-02T12:33:12.048Z,100881.31
2023-03-02T12:35:41.180Z,100877.65
2023-03-02T12:38:31.221Z,100875.12
2023-03-02T12:41:06.060Z,100876.70
2023-03-02T12:44:06.908Z,100874.19
2023-03-02T12:46:37.338Z,100870.55
2023-03-02T12:49:12.858Z,100866.36
2023-03-02T12:52:00.679Z,100860.80
2023-03-02T12:54:32.532Z,100858.95
2023-03-02T12:57:14.363Z,100858.33
2023-03-02T12:59:44.021Z,100853.77
2023-03-02T13:02:20.926Z,100853.10
2023-03-02T13:04:59.064Z,100849.15
2023-03-02T13:07:36.823Z,100847.40
2023-03-02T13:10:20.672Z,100845.02
2023-03-02T13:12:49.173Z,100843.07
2023-03-02T13:15:18.150Z,100841.76
2023-03-02T13:17:57.703Z,100839.86
2023-03-02T13:20:30.029Z,100835.29
2023-03-02T13:22:58.553Z,100832.39
2023-03-02T13:25:31.747Z,100828.70
2023-03-02T13:28:07.743Z,100825.34
2023-03-02T13:30:48.067Z,100819.52
2023-03-02T13:33:26.889Z,100816.25
2023-03-02T13:35:56.529Z,100816.66
2023-03-02T13:38:36.653Z,100811.84
2023-03-02T13:41:05.735Z,100803.05
2023-03-02T13:43:37.516Z,100800.31
2023-03-02T13:46:17.928Z,100793.91
2023-03-02T13:49:09.773Z,100791.80
2023-03-02T13:51:45.535Z,100787.96
2023-03-02T13:54:24.402Z,100784.05
2023-03-02T13:56:53.981Z,100780.25
2023-03-02T13:59:23.173Z,100776.73
2023-03-02T14:01:51.560Z,100774.19
2023-03-02T14:04:26.064Z,100771.20
2023-03-02T14:06:55.695Z,100764.52
2023-03-02T14:09:24.260Z,100763.81
2023-03-02T14:11:55.183Z,100764.77
2023-03-02T14:14:27.499Z,100762.25
2023-03-02T14:16:56.886Z,100759.63
2023-03-02T14:19:25.363Z,100757.30
2023-03-02T14:21:53.736Z,100756.63
2023-03-02T14:24:22.029Z,100752.95
2023-03-02T14:26:50.497Z,100749.10
2023-03-02T14:29:34.733Z,100739.55
2023-03-02T14:32:04.857Z,100735.45
2023-03-02T14:34:36.021Z,100732.55
2023-03-02T14:37:09.122Z,100732.28
2023-03-02T14:39:39.471Z,100725.81
2023-03-02T14:42:34.383Z,100723.98
2023-03-02T14:45:03.034Z,100724.30
2023-03-02T14:47:32.104Z,100725.30
2023-03-02T14:50:00.495Z,100722.35
2023-03-02T14:52:43.838Z,100718.73
2023-03-02T14:55:14.862Z,100714.46
2023-03-02T14:57:43.443Z,100715.82
2023-03-02T15:00:15.652Z,100714.76
2023-03-02T15:02:44.271Z,100715.30
2023-03-02T15:05:13.167Z,100716.36
2023-03-02T15:07:42.178Z,100713.83
2023-03-02T15:10:17.309Z,100710.08
2023-03-02T15:12:46.198Z,100710.58
2023-03-02T15:15:14.715Z,100704.27
2023-03-02T15:17:43.705Z,100701.15
2023-03-02T15:20:16.571Z,100701.66
2023-03-02T15:22:45.371Z,100702.61
2023-03-02T15:25:13.735Z,100698.33
2023-03-02T15:27:42.222Z,100699.74
2023-03-02T15:30:12.530Z,100700.02
2023-03-02T15:32:41.659Z,100692.08
2023-03-02T15:35:12.438Z,100702.47
2023-03-02T15:37:41.258Z,100700.57
2023-03-02T15:40:10.692Z,100694.89
2023-03-02T15:42:39.245Z,100694.90
2023-03-02T15:45:08.443Z,100695.70
2023-03-02T15:47:38.254Z,100695.08
2023-03-02T15:50:07.456Z,100696.52
2023-03-02T15:52:35.847Z,100694.85
2023-03-02T15:55:05.152Z,100694.60
2023-03-02T15:57:40.581Z,100692.32
2023-03-02T16:00:13.602Z,100687.94
2023-03-02T16:02:42.448Z,100688.42
2023-03-02T16:05:11.033Z,100685.27
2023-03-02T16:07:40.346Z,100688.09
2023-03-02T16:10:15.479Z,100691.58
2023-03-02T16:12:44.157Z,100691.23
2023-03-02T16:15:12.851Z,100691.19
2023-03-02T16:17:42.924Z,100691.45
2023-03-02T16:20:12.176Z,100690.48
2023-03-02T16:22:41.194Z,100695.96
2023-03-02T16:25:11.708Z,100705.59
2023-03-02T16:27:41.510Z,100698.88
2023-03-02T16:30:11.728Z,100697.39
2023-03-02T16:32:40.697Z,100700.27
2023-03-02T16:35:09.817Z,100698.39
2023-03-02T16:37:38.379Z,100705.14
2023-03-02T16:40:11.496Z,100708.05
2023-03-02T16:42:42.193Z,100715.37
2023-03-02T16:45:11.630Z,100715.44
2023-03-02T16:47:40.342Z,100719.13
2023-03-02T16:50:09.749Z,100719.94
2023-03-02T16:52:38.996Z,100726.64
2023-03-02T16:55:13.426Z,100728.09
2023-03-02T16:57:42.874Z,100734.42
2023-03-02T17:00:15.499Z,100741.82
2023-03-02T17:02:45.654Z,100743.63
2023-03-02T17:05:16.113Z,100750.39
2023-03-02T17:07:44.898Z,100755.41
2023-03-02T17:10:17.631Z,100756.66
2023-03-02T17:12:46.867Z,100762.99
2023-03-02T17:15:16.495Z,100759.27
2023-03-02T17:17:45.895Z,100762.20
2023-03-02T17:20:15.037Z,100760.19
2023-03-02T17:22:43.872Z,100758.34
2023-03-02T17:25:13.171Z,100761.78
2023-03-02T17:27:41.563Z,100760.14
2023-03-02T17:30:12.871Z,100765.79
2023-03-02T17:35:25.301Z,100765.61
2023-03-02T17:37:53.899Z,100770.06
2023-03-02T17:40:22.977Z,100771.23
2023-03-02T17:42:55.373Z,100772.34
2023-03-02T17:45:28.274Z,100771.35
2023-03-02T17:47:58.466Z,100771.21
2023-03-02T17:50:29.979Z,100770.41
2023-03-02T17:53:00.081Z,100769.70
2023-03-02T17:55:28.953Z,100766.27
2023-03-02T17:57:58.634Z,100767.34
2023-03-02T18:00:27.861Z,100770.52
2023-03-02T18:02:56.515Z,100768.39
2023-03-02T18:05:26.657Z,100767.95
2023-03-02T18:07:55.680Z,100772.67
2023-03-02T18:10:24.583Z,100774.59
2023-03-02T18:12:54.702Z,100775.73
2023-03-02T18:15:24.837Z,100774.39
2023-03-02T18:17:54.340Z,100775.25
2023-03-02T18:20:23.928Z,100776.33
2023-03-02T18:22:52.510Z,100775.55
2023-03-02T18:25:21.516Z,100773.23
2023-03-02T18:27:50.553Z,100779.02
2023-03-02T18:30:21.106Z,100779.98
2023-03-02T18:32:50.630Z,100784.05
2023-03-02T18:35:19.754Z,100781.58
2023-03-02T18:37:48.806Z,100779.33
2023-03-02T18:40:17.970Z,100779.16
2023-03-02T18:42:47.588Z,100784.17
2023-03-02T18:45:26.711Z,100789.88
2023-03-02T18:47:56.628Z,100795.35
2023-03-02T18:50:26.521Z,100795.34
2023-03-02T18:52:55.222Z,100795.05
2023-03-02T18:55:25.343Z,100790.54
2023-03-02T18:57:56.690Z,100789.88
2023-03-02T19:00:28.687Z,100786.39
2023-03-02T19:02:57.772Z,100785.10
2023-03-02T19:05:29.944Z,100785.23
2023-03-02T19:08:00.761Z,100786.29
2023-03-02T19:10:29.554Z,100786.66
2023-03-02T19:12:59.177Z,100786.40
2023-03-02T19:15:28.763Z,100785.70
2023-03-02T19:17:58.080Z,100787.76
2023-03-02T19:20:27.780Z,100788.10
2023-03-02T19:22:56.335Z,100791.86
2023-03-02T19:25:25.544Z,100795.96
2023-03-02T19:27:54.168Z,100792.27
2023-03-02T19:30:26.545Z,100796.58
2023-03-02T19:32:55.813Z,100800.30
2023-03-02T19:35:27.839Z,100800.20
2023-03-02T19:37:56.823Z,100802.46
2023-03-02T19:40:29.313Z,100805.14
2023-03-02T19:42:58.808Z,100799.09
2023-03-02T19:45:31.860Z,100801.98
2023-03-02T19:48:02.061Z,100802.33
2023-03-02T19:50:30.828Z,100805.52
2023-03-02T19:52:59.871Z,100807.09
2023-03-02T19:55:29.033Z,100806.80
2023-03-02T19:58:00.637Z,100807.54
2023-03-02T20:00:32.471Z,100807.95
2023-03-02T20:03:01.765Z,100809.70
2023-03-02T20:05:31.036Z,100805.89
2023-03-02T20:08:00.129Z,100803.42
2023-03-02T20:10:34.587Z,100806.80
2023-03-02T20:13:04.882Z,100809.00
2023-03-02T20:15:38.240Z,100807.09
2023-03-02T20:18:10.874Z,100810.35
2023-03-02T20:20:40.777Z,100810.85
2023-03-02T20:23:10.404Z,100809.06
2023-03-02T20:25:39.710Z,100810.34
2023-03-02T20:28:13.097Z,100804.92
2023-03-02T20:30:51.932Z,100806.77
2023-03-02T20:33:24.096Z,100801.03
2023-03-02T20:35:53.940Z,100800.00
2023-03-02T20:38:31.116Z,100798.31
2023-03-02T20:41:01.298Z,100797.65
2023-03-02T20:43:30.793Z,100801.54
2023-03-02T20:46:00.968Z,100800.77
2023-03-02T20:48:32.880Z,100803.09
2023-03-02T20:51:02.710Z,100808.19
2023-03-02T20:53:31.686Z,100803.14
2023-03-02T20:56:02.038Z,100803.29
2023-03-02T20:58:31.432Z,100803.11
2023-03-02T21:01:01.130Z,100802.50
2023-03-02T21:03:30.325Z,100804.05
2023-03-02T21:05:59.211Z,100800.58
2023-03-02T21:08:28.410Z,100801.17
2023-03-02T21:10:57.296Z,100792.34
2023-03-02T21:13:26.914Z,100793.02
2023-03-02T21:15:57.280Z,100795.48
2023-03-02T21:18:27.399Z,100797.70
2023-03-02T21:20:56.077Z,100793.75
2023-03-02T21:23:25.235Z,100796.35
2023-03-02T21:25:54.424Z,100790.42
2023-03-02T21:28:23.545Z,100788.59
2023-03-02T21:30:52.347Z,100791.39
2023-03-02T21:33:22.239Z,100791.90
2023-03-02T21:35:51.015Z,100790.66
2023-03-02T21:38:19.744Z,100783.77
2023-03-02T21:40:48.402Z,100787.64
2023-03-02T21:43:17.096Z,100784.81
2023-03-02T21:45:45.865Z,100786.08
2023-03-02T21:48:15.497Z,100781.15
2023-03-02T21:50:46.240Z,100773.56
2023-03-02T21:53:16.436Z,100775.52
2023-03-02T21:55:46.129Z,100772.77
2023-03-02T21:58:14.518Z,100772.21
2023-03-02T22:00:46.297Z,100770.13
2023-03-02T22:03:15.395Z,100774.61
2023-03-02T22:05:44.061Z,100772.52
2023-03-02T22:08:21.142Z,100773.48
2023-03-02T22:10:51.673Z,100772.58
2023-03-02T22:13:30.699Z,100773.17
2023-03-02T22:16:24.290Z,100770.77
2023-03-02T22:18:59.403Z,100773.75
2023-03-02T22:21:28.721Z,100771.73
2023-03-02T22:24:11.322Z,100773.58
2023-03-02T22:26:43.482Z,100774.80
2023-03-02T22:29:41.873Z,100772.05
2023-03-02T22:32:17.220Z,100769.16
2023-03-02T22:34:47.926Z,100773.88
2023-03-02T22:37:19.715Z,100771.64
2023-03-02T22:39:49.921Z,100769.58
2023-03-02T22:42:27.257Z,100766.81
2023-03-02T22:45:15.678Z,100766.42
2023-03-02T22:47:49.242Z,100764.27
2023-03-02T22:50:28.702Z,100763.52
2023-03-02T22:53:02.407Z,100761.72
2023-03-02T22:55:38.563Z,100762.40
2023-03-02T22:58:25.288Z,100760.31
2023-03-02T23:00:54.109Z,100750.48
2023-03-02T23:03:28.282Z,100747.38
2023-03-02T23:05:56.595Z,100741.52
2023-03-02T23:08:30.162Z,100731.35
2023-03-02T23:10:59.562Z,100738.98
2023-03-02T23:13:38.803Z,100736.27
2023-03-02T23:16:27.195Z,100738.69
2023-03-02T23:18:59.525Z,100741.03
2023-03-02T23:21:37.632Z,100737.19
2023-03-02T23:24:08.455Z,100735.98
2023-03-02T23:26:37.355Z,100727.14
2023-03-02T23:29:06.265Z,100726.85
2023-03-02T23:31:34.681Z,100734.96
2023-03-02T23:34:04.065Z,100735.73
2023-03-02T23:36:32.353Z,100737.60
2023-03-02T23:39:00.881Z,100734.83
2023-03-02T23:41:29.174Z,100730.58
2023-03-02T23:43:58.361Z,100722.80
2023-03-02T23:46:26.936Z,100725.14
2023-03-02T23:48:56.316Z,100720.71
2023-03-02T23:51:28.721Z,100721.30
2023-03-02T23:53:57.088Z,100720.91
2023-03-02T23:56:25.353Z,100722.98
2023-03-02T23:58:53.843Z,100720.40
